KSFZ/SFZ METAR and TAF weather

Enter ICAO airport designator
Station Type Date Time Source
KSFZ METAR 2018/12/10 12:56 UTC NOAA

KSFZ 101256Z AUTO 36008KT 10SM CLR M03/M07 A3006 RMK AO2 SLP131 T10331072 FZRANO


Station Type Date Time Source
KSFZ Decoded METAR 2018/12/10 12:56 UTC NOAA

Pawtucket, North Central State Airport, RI, United States (KSFZ) 41-55N 071-30W
Dec 10, 2018 - 07:56 AM EST / 2018.12.10 1256 UTC
Wind: from the N (360 degrees) at 9 MPH (8 KT):0
Visibility: 10 mile(s):0
Sky conditions: clear
Temperature: 26.1 F (-3.3 C)
Windchill: 17 F (-8 C):1
Dew Point: 19.0 F (-7.2 C)
Relative Humidity: 74%
Pressure (altimeter): 30.06 in. Hg (1017 hPa)
ob: KSFZ 101256Z AUTO 36008KT 10SM CLR M03/M07 A3006 RMK AO2 SLP131 T10331072 FZRANO
cycle: 13

Station Type Date Time Source
KSFZ TAF UTC NOAA

Error!


Example: see airport list